Time;durP1;ratioP1;P1;durP2;ratioP2;P2;SDS_P1;SDS_P2;PMS_P1;PMS_P2;Temp;Humidity;BMP_temperature;BMP_pressure;BME280_temperature;BME280_humidity;BME280_pressure;Samples;Min_cycle;Max_cycle;Signal;HPM_P1;HPM_P2
2022/12/20 00:02:23;;;;;;;157.67;143.47;;;2.60;36.10;;;;;;5073585;28;20183;-71
2022/12/20 00:04:50;;;;;;;207.57;192.00;;;2.60;36.10;;;;;;5089197;28;20257;-71
2022/12/20 00:07:15;;;;;;;198.00;182.82;;;2.50;36.00;;;;;;5074551;28;20671;-70
2022/12/20 00:09:41;;;;;;;282.93;261.50;;;2.40;36.60;;;;;;5073840;28;20176;-70
2022/12/20 00:12:06;;;;;;;265.37;246.90;;;2.40;37.20;;;;;;5073178;28;20627;-70
2022/12/20 00:14:32;;;;;;;286.77;265.17;;;2.40;36.80;;;;;;5089048;28;20192;-71
2022/12/20 00:16:57;;;;;;;202.93;186.93;;;2.40;36.70;;;;;;5073570;28;20569;-70
2022/12/20 00:19:23;;;;;;;209.97;193.83;;;2.30;37.00;;;;;;5073546;28;20645;-70
2022/12/20 00:21:49;;;;;;;221.63;204.50;;;2.30;37.70;;;;;;5073337;28;20175;-71
2022/12/20 00:24:14;;;;;;;150.30;136.57;;;2.40;37.30;;;;;;5073561;28;20677;-70
2022/12/20 00:26:40;;;;;;;203.93;187.80;;;2.30;36.90;;;;;;5072663;28;20198;-70
2022/12/20 00:29:06;;;;;;;202.63;186.33;;;2.30;37.20;;;;;;5088347;28;20214;-70
2022/12/20 00:31:31;;;;;;;297.33;275.55;;;2.30;37.30;;;;;;5088623;28;20171;-69
2022/12/20 00:33:58;;;;;;;213.53;196.93;;;2.20;37.20;;;;;;5073157;28;20170;-70
2022/12/20 00:36:26;;;;;;;222.25;204.77;;;2.20;37.90;;;;;;5072990;28;20691;-70
2022/12/20 00:38:54;;;;;;;134.95;121.07;;;2.20;37.90;;;;;;5073192;28;20189;-68
2022/12/20 00:41:22;;;;;;;199.85;183.77;;;2.20;37.50;;;;;;5072751;28;20184;-68
2022/12/20 00:43:48;;;;;;;171.10;156.85;;;2.10;38.30;;;;;;5072239;28;20594;-69
2022/12/20 00:46:16;;;;;;;205.67;189.87;;;2.10;39.50;;;;;;5073013;28;20212;-69
2022/12/20 00:48:42;;;;;;;203.90;187.77;;;2.20;39.20;;;;;;5073003;28;20759;-69
2022/12/20 00:51:11;;;;;;;175.33;159.93;;;2.20;39.00;;;;;;5072916;28;20257;-70
2022/12/20 00:53:37;;;;;;;186.52;171.05;;;2.20;38.70;;;;;;5072556;28;20569;-70
2022/12/20 00:56:04;;;;;;;141.85;128.43;;;2.20;40.40;;;;;;5071871;28;20264;-69
2022/12/20 00:58:32;;;;;;;349.70;323.15;;;2.20;40.00;;;;;;5072616;28;20175;-70
2022/12/20 01:00:58;;;;;;;163.95;149.73;;;2.10;39.80;;;;;;5072952;28;20461;-70
2022/12/20 01:03:25;;;;;;;296.90;272.20;;;2.20;40.90;;;;;;5072582;28;20176;-71
2022/12/20 01:06:00;;;;;;;187.52;171.77;;;2.20;40.00;;;;;;5072492;28;20210;-70
2022/12/20 01:08:28;;;;;;;225.25;207.38;;;2.20;40.90;;;;;;5072486;28;20182;-71
2022/12/20 01:11:01;;;;;;;151.23;137.38;;;2.30;41.60;;;;;;5072621;28;20656;-70
2022/12/20 01:13:28;;;;;;;177.80;162.52;;;2.40;41.00;;;;;;5072529;28;20179;-70
2022/12/20 01:15:53;;;;;;;268.42;245.38;;;2.40;39.40;;;;;;5072369;28;20210;-70
2022/12/20 01:18:19;;;;;;;169.73;154.93;;;2.40;38.90;;;;;;5072556;28;20183;-70
2022/12/20 01:20:44;;;;;;;196.97;179.97;;;2.40;39.80;;;;;;5072130;28;20176;-70
2022/12/20 01:23:10;;;;;;;141.20;127.60;;;2.40;40.00;;;;;;5072178;28;20209;-70
2022/12/20 01:25:35;;;;;;;141.63;127.63;;;2.50;40.60;;;;;;5072385;28;20688;-71
2022/12/20 01:28:01;;;;;;;218.83;203.00;;;2.50;41.10;;;;;;5072422;28;20314;-69
2022/12/20 01:30:26;;;;;;;243.70;226.33;;;2.70;40.00;;;;;;5072512;28;20204;-70
2022/12/20 01:32:52;;;;;;;276.53;256.30;;;2.80;38.30;;;;;;5087344;28;20181;-70
2022/12/20 01:35:17;;;;;;;244.33;227.90;;;2.80;38.20;;;;;;5071811;28;20221;-70
2022/12/20 01:37:43;;;;;;;233.43;215.97;;;2.80;38.80;;;;;;5087790;28;20194;-70
2022/12/20 01:40:09;;;;;;;162.17;148.20;;;2.90;38.10;;;;;;5071753;28;20276;-70
2022/12/20 01:42:35;;;;;;;239.18;223.10;;;2.90;37.40;;;;;;5072079;28;20665;-71
2022/12/20 01:45:02;;;;;;;266.92;249.38;;;2.90;37.30;;;;;;5072156;28;20215;-70
2022/12/20 01:47:31;;;;;;;229.48;212.13;;;3.00;37.30;;;;;;5072401;28;20584;-70
2022/12/20 01:50:00;;;;;;;235.60;217.88;;;3.00;36.50;;;;;;5071820;28;20183;-70
2022/12/20 01:52:36;;;;;;;302.83;281.75;;;3.00;36.40;;;;;;5071715;28;20209;-70
2022/12/20 01:55:07;;;;;;;229.30;213.27;;;3.10;36.60;;;;;;5072332;28;20225;-70
2022/12/20 01:57:47;;;;;;;284.48;262.92;;;3.00;36.40;;;;;;5087544;28;20234;-70
2022/12/20 02:00:15;;;;;;;196.02;180.93;;;3.00;36.40;;;;;;5071996;28;20179;-70
2022/12/20 02:02:42;;;;;;;375.02;346.30;;;3.00;37.70;;;;;;5071398;28;20570;-70
2022/12/20 02:05:09;;;;;;;223.10;205.52;;;3.10;37.80;;;;;;5071946;28;20679;-70
2022/12/20 02:07:37;;;;;;;304.95;281.52;;;3.10;37.50;;;;;;5071862;28;20175;-71
2022/12/20 02:10:05;;;;;;;277.20;254.70;;;3.10;38.60;;;;;;5087116;28;20171;-70
2022/12/20 02:12:45;;;;;;;330.83;307.15;;;3.20;39.50;;;;;;5071297;28;20224;-72
2022/12/20 02:15:43;;;;;;;219.45;201.10;;;3.30;38.70;;;;;;5071593;28;20600;-71
2022/12/20 02:18:30;;;;;;;269.25;248.98;;;3.50;38.70;;;;;;5071477;28;20200;-71
2022/12/20 02:21:22;;;;;;;364.70;336.95;;;3.60;38.00;;;;;;5071634;28;20639;-70
2022/12/20 02:24:03;;;;;;;351.63;325.27;;;3.70;37.10;;;;;;5071499;28;20177;-71
2022/12/20 02:26:47;;;;;;;278.92;258.33;;;3.90;37.20;;;;;;5071647;28;20936;-70
2022/12/20 02:29:38;;;;;;;269.83;250.57;;;4.20;35.70;;;;;;5071798;28;20548;-70
2022/12/20 02:32:15;;;;;;;331.17;307.07;;;4.30;34.40;;;;;;5071079;28;20418;-74
2022/12/20 02:34:41;;;;;;;307.73;286.20;;;4.50;34.00;;;;;;5072223;28;20445;-71
2022/12/20 02:37:08;;;;;;;294.90;273.73;;;4.60;33.80;;;;;;5071855;28;20412;-71
2022/12/20 02:39:36;;;;;;;367.83;341.60;;;4.70;32.10;;;;;;5072144;28;20491;-71
2022/12/20 02:42:09;;;;;;;210.17;194.63;;;4.80;31.10;;;;;;5072302;28;20499;-71
2022/12/20 02:47:29;;;;;;;319.10;297.10;;;5.00;30.00;;;;;;5072876;28;20463;-71
2022/12/20 02:49:56;;;;;;;479.53;448.50;;;5.10;29.60;;;;;;5072462;28;20765;-70
2022/12/20 02:52:25;;;;;;;528.80;492.17;;;5.20;29.40;;;;;;5091644;28;20445;-71
2022/12/20 02:54:53;;;;;;;413.23;383.30;;;5.20;28.50;;;;;;5091698;28;20438;-71
2022/12/20 02:57:32;;;;;;;389.17;362.77;;;5.30;27.80;;;;;;5076035;28;20415;-70
2022/12/20 03:00:09;;;;;;;390.83;363.23;;;5.40;28.30;;;;;;5076002;28;20404;-71
2022/12/20 03:05:23;;;;;;;222.17;206.60;;;5.40;27.10;;;;;;5076874;28;20474;-71
2022/12/20 03:07:48;;;;;;;399.90;372.83;;;5.50;26.90;;;;;;5093674;28;20439;-71
2022/12/20 03:10:15;;;;;;;363.40;338.43;;;5.50;26.50;;;;;;5077640;28;20416;-71
2022/12/20 03:12:40;;;;;;;335.27;311.73;;;5.60;26.80;;;;;;5076795;28;20178;-71
2022/12/20 03:15:06;;;;;;;340.67;316.23;;;5.60;26.40;;;;;;5077049;28;20473;-72
2022/12/20 03:17:32;;;;;;;354.47;328.90;;;5.50;26.50;;;;;;5077106;28;20182;-71
2022/12/20 03:19:57;;;;;;;259.93;241.40;;;5.50;26.50;;;;;;5076570;28;20619;-70
2022/12/20 03:22:23;;;;;;;197.07;182.60;;;5.50;26.50;;;;;;5075728;28;20560;-71
2022/12/20 03:24:49;;;;;;;283.87;261.77;;;5.40;26.50;;;;;;5075140;28;20716;-71
2022/12/20 03:27:15;;;;;;;492.37;459.30;;;5.40;26.20;;;;;;5075423;28;20260;-71
2022/12/20 03:29:40;;;;;;;453.87;422.27;;;5.40;26.40;;;;;;5091408;28;20941;-71
2022/12/20 03:32:06;;;;;;;498.93;467.60;;;5.40;26.80;;;;;;5075699;28;20417;-72
2022/12/20 03:34:32;;;;;;;162.80;149.80;;;5.40;26.40;;;;;;5075978;28;20217;-71
2022/12/20 03:36:57;;;;;;;194.17;178.87;;;5.40;26.40;;;;;;5091255;28;20184;-71
2022/12/20 03:39:23;;;;;;;411.23;382.70;;;5.50;26.20;;;;;;5075105;28;20186;-71
2022/12/20 03:41:49;;;;;;;480.33;448.23;;;5.40;26.10;;;;;;5074491;28;20232;-71
2022/12/20 03:44:14;;;;;;;118.97;107.77;;;5.50;26.20;;;;;;5074734;28;20425;-71
2022/12/20 03:46:40;;;;;;;596.73;556.20;;;5.50;26.40;;;;;;5074896;28;20284;-71
2022/12/20 03:49:05;;;;;;;473.57;441.97;;;5.50;25.80;;;;;;5074432;28;20174;-71
2022/12/20 03:51:31;;;;;;;196.03;181.53;;;5.40;25.90;;;;;;5074607;28;20178;-71
2022/12/20 03:53:57;;;;;;;183.60;169.43;;;5.40;26.10;;;;;;5074580;28;20650;-71
2022/12/20 03:56:22;;;;;;;484.23;450.67;;;5.40;25.40;;;;;;5074485;28;20655;-71
2022/12/20 03:58:51;;;;;;;232.37;213.53;;;5.40;26.20;;;;;;5074533;28;20666;-72
2022/12/20 04:01:19;;;;;;;470.30;442.00;;;5.20;25.90;;;;;;5074129;28;20211;-70
2022/12/20 04:03:44;;;;;;;526.00;489.07;;;5.20;26.10;;;;;;5089371;28;20452;-71
2022/12/20 04:06:10;;;;;;;419.43;391.83;;;5.10;26.10;;;;;;5074068;28;20498;-71
2022/12/20 04:08:35;;;;;;;569.53;529.30;;;4.90;26.50;;;;;;5074104;28;20170;-70
2022/12/20 04:11:16;;;;;;;702.27;653.83;;;4.70;27.30;;;;;;5074021;28;20185;-71
2022/12/20 04:13:50;;;;;;;357.60;333.03;;;4.60;27.10;;;;;;5089175;28;20174;-70
2022/12/20 04:16:18;;;;;;;647.63;602.40;;;4.50;27.40;;;;;;5073736;28;20914;-71
2022/12/20 04:18:44;;;;;;;427.60;398.10;;;4.50;27.20;;;;;;5089530;28;20415;-71
2022/12/20 04:21:10;;;;;;;466.97;435.50;;;4.40;27.90;;;;;;5073558;28;20415;-71
2022/12/20 04:23:38;;;;;;;439.20;407.83;;;4.40;28.00;;;;;;5073150;28;20184;-71
2022/12/20 04:26:06;;;;;;;417.77;389.03;;;4.40;28.00;;;;;;5073764;28;20473;-70
2022/12/20 04:28:32;;;;;;;225.20;208.10;;;4.40;28.00;;;;;;5075198;28;20470;-70
2022/12/20 04:30:58;;;;;;;268.30;249.60;;;4.30;27.90;;;;;;5073539;28;20416;-71
2022/12/20 04:33:24;;;;;;;279.07;259.27;;;4.30;29.00;;;;;;5072937;28;20401;-71
2022/12/20 04:35:50;;;;;;;283.13;263.10;;;4.20;29.50;;;;;;5072924;28;20495;-71
2022/12/20 04:38:17;;;;;;;335.93;314.37;;;4.30;30.10;;;;;;5088620;28;20454;-71
2022/12/20 04:40:43;;;;;;;328.67;305.40;;;4.40;31.00;;;;;;5088548;28;20418;-70
2022/12/20 04:43:08;;;;;;;356.27;332.40;;;4.50;30.90;;;;;;5072768;28;20427;-70
2022/12/20 04:45:34;;;;;;;348.13;324.33;;;4.60;30.50;;;;;;5088470;28;20216;-70
2022/12/20 04:48:00;;;;;;;290.20;270.27;;;4.70;29.40;;;;;;5072938;28;20412;-71
2022/12/20 04:50:25;;;;;;;489.50;457.00;;;4.80;29.30;;;;;;5072982;28;20192;-70
2022/12/20 04:55:39;;;;;;;269.20;250.73;;;5.00;28.40;;;;;;5073078;28;20204;-70
2022/12/20 04:58:05;;;;;;;385.70;360.57;;;4.70;27.90;;;;;;5072921;28;20412;-71
2022/12/20 05:00:31;;;;;;;660.60;616.13;;;4.70;28.20;;;;;;5072983;28;20414;-70
2022/12/20 05:03:00;;;;;;;419.77;389.10;;;4.70;28.20;;;;;;5072697;28;21000;-70
2022/12/20 05:05:26;;;;;;;358.07;335.70;;;4.60;28.10;;;;;;5072965;28;20567;-70
2022/12/20 05:07:52;;;;;;;559.73;521.13;;;4.60;28.10;;;;;;5088213;28;20477;-72
2022/12/20 05:10:18;;;;;;;383.70;361.03;;;4.60;28.20;;;;;;5072871;28;20404;-70
2022/12/20 05:12:44;;;;;;;315.57;291.97;;;4.60;28.10;;;;;;5072520;28;20169;-71
2022/12/20 05:15:10;;;;;;;373.23;351.37;;;4.60;28.10;;;;;;5072393;28;20201;-71
2022/12/20 05:17:36;;;;;;;336.23;315.93;;;4.60;28.10;;;;;;5073058;28;20511;-71
2022/12/20 05:20:02;;;;;;;392.10;368.13;;;4.60;28.10;;;;;;5088197;28;20991;-71
2022/12/20 05:27:57;;;;;;;298.53;278.03;;;4.50;28.10;;;;;;5072503;28;20411;-72
2022/12/20 05:30:23;;;;;;;419.53;394.67;;;4.50;28.00;;;;;;5072395;28;20782;-71
2022/12/20 05:32:48;;;;;;;400.33;375.23;;;4.50;28.00;;;;;;5072028;28;20680;-71
2022/12/20 05:35:14;;;;;;;382.27;360.07;;;4.50;28.10;;;;;;5095887;22;20843;-69
2022/12/20 05:37:40;;;;;;;362.83;341.03;;;4.50;28.10;;;;;;5072142;28;20219;-69
2022/12/20 05:40:06;;;;;;;358.10;336.37;;;4.50;28.10;;;;;;5072129;28;20169;-69
2022/12/20 05:42:31;;;;;;;355.70;334.43;;;4.50;28.00;;;;;;5071860;28;20408;-69
2022/12/20 05:44:57;;;;;;;425.03;398.73;;;4.50;28.00;;;;;;5071921;28;20459;-69
2022/12/20 05:47:23;;;;;;;361.43;339.20;;;4.50;28.10;;;;;;5072023;28;20182;-69
2022/12/20 05:49:49;;;;;;;347.63;323.50;;;4.50;28.20;;;;;;5071863;28;20173;-69
2022/12/20 05:52:14;;;;;;;550.00;511.57;;;4.40;28.50;;;;;;5071624;28;20898;-69
2022/12/20 05:54:40;;;;;;;601.47;560.00;;;4.40;28.60;;;;;;5072501;28;20205;-69
2022/12/20 05:57:05;;;;;;;607.80;565.73;;;4.30;28.60;;;;;;5087344;28;20181;-69
2022/12/20 05:59:31;;;;;;;386.60;359.80;;;4.20;29.10;;;;;;5071925;28;20181;-69
2022/12/20 06:01:56;;;;;;;564.60;524.20;;;4.00;30.80;;;;;;5071543;28;20209;-70
2022/12/20 06:04:22;;;;;;;614.60;572.13;;;4.00;31.10;;;;;;5071529;28;20180;-70
2022/12/20 06:06:48;;;;;;;447.63;416.90;;;4.10;30.90;;;;;;5071773;28;20573;-70
2022/12/20 06:09:13;;;;;;;152.30;138.40;;;3.90;31.20;;;;;;5071749;28;20269;-70
2022/12/20 06:11:39;;;;;;;355.07;335.40;;;3.90;32.90;;;;;;5087102;28;20280;-69
2022/12/20 06:14:04;;;;;;;312.23;290.87;;;3.90;32.30;;;;;;5071723;28;20179;-70
2022/12/20 06:16:30;;;;;;;309.13;287.67;;;3.90;32.00;;;;;;5071727;28;20201;-70
2022/12/20 06:18:55;;;;;;;466.93;435.47;;;3.90;32.10;;;;;;5071576;28;20238;-70
2022/12/20 06:21:21;;;;;;;444.03;412.27;;;3.80;32.00;;;;;;5071682;28;20178;-70
2022/12/20 06:23:47;;;;;;;717.20;667.57;;;3.70;32.50;;;;;;5071543;28;20189;-68
2022/12/20 06:26:13;;;;;;;244.57;226.67;;;3.70;33.30;;;;;;5073953;28;20224;-68
2022/12/20 06:28:41;;;;;;;756.67;702.93;;;3.70;34.00;;;;;;5075702;28;20182;-69
2022/12/20 06:31:09;;;;;;;396.80;371.87;;;3.80;33.40;;;;;;5075552;28;20269;-70
2022/12/20 06:33:35;;;;;;;242.63;224.65;;;3.80;33.40;;;;;;5075409;28;20422;-68
2022/12/20 06:36:01;;;;;;;400.40;369.57;;;3.80;32.70;;;;;;5090889;28;20216;-69
2022/12/20 06:38:27;;;;;;;224.67;208.63;;;3.90;32.10;;;;;;5075477;28;20791;-69
2022/12/20 06:40:52;;;;;;;126.83;114.37;;;3.90;32.90;;;;;;5091031;28;20433;-69
2022/12/20 06:43:18;;;;;;;320.20;301.57;;;3.90;32.50;;;;;;5090747;28;20646;-69
2022/12/20 06:45:44;;;;;;;320.40;300.50;;;3.90;32.00;;;;;;5058317;28;20223;-69
2022/12/20 06:48:10;;;;;;;330.93;312.07;;;3.90;33.20;;;;;;5054966;28;20192;-69
2022/12/20 06:50:37;;;;;;;437.77;410.05;;;3.90;32.80;;;;;;5055621;28;20525;-69
2022/12/20 06:53:02;;;;;;;180.47;166.33;;;3.90;32.70;;;;;;5070334;28;20260;-69
2022/12/20 06:55:28;;;;;;;325.10;303.27;;;3.90;32.90;;;;;;5053814;28;21040;-69
2022/12/20 06:57:55;;;;;;;307.90;288.70;;;4.00;32.20;;;;;;5053892;28;20635;-69
2022/12/20 07:00:21;;;;;;;174.57;160.80;;;4.10;32.20;;;;;;5055086;28;20529;-69
2022/12/20 07:02:46;;;;;;;146.90;134.27;;;4.20;32.30;;;;;;5060516;28;20438;-69
2022/12/20 07:05:12;;;;;;;394.27;369.17;;;4.20;31.90;;;;;;5074653;28;20463;-70
2022/12/20 07:07:38;;;;;;;215.27;199.53;;;4.20;31.40;;;;;;5090510;28;20213;-69
2022/12/20 07:10:04;;;;;;;316.03;298.03;;;4.30;32.00;;;;;;5074856;28;20181;-70
2022/12/20 07:12:29;;;;;;;266.23;248.83;;;4.20;31.90;;;;;;5074718;28;20177;-69
2022/12/20 07:14:55;;;;;;;459.93;426.30;;;4.20;31.60;;;;;;5090531;28;20534;-69
2022/12/20 07:17:20;;;;;;;313.60;295.67;;;4.20;32.00;;;;;;5074799;28;21275;-70
2022/12/20 07:19:46;;;;;;;219.00;203.10;;;4.20;32.00;;;;;;5074408;28;20222;-69
2022/12/20 07:22:11;;;;;;;342.63;322.10;;;4.20;31.90;;;;;;5074367;28;20189;-69
2022/12/20 07:24:38;;;;;;;355.63;335.30;;;4.20;30.90;;;;;;5074445;28;20177;-69
2022/12/20 07:27:03;;;;;;;347.00;326.83;;;4.20;31.00;;;;;;5089955;28;20220;-68
2022/12/20 07:29:29;;;;;;;496.40;463.87;;;4.20;31.10;;;;;;5074353;28;20413;-70
2022/12/20 07:31:54;;;;;;;173.60;159.73;;;4.10;31.00;;;;;;5074272;28;20191;-70
2022/12/20 07:34:20;;;;;;;346.30;319.97;;;4.00;31.60;;;;;;5074410;28;20174;-70
2022/12/20 07:36:45;;;;;;;283.77;266.20;;;4.00;31.20;;;;;;5073710;28;20246;-70
2022/12/20 07:39:11;;;;;;;340.80;321.60;;;4.10;31.60;;;;;;5074249;28;20185;-70
2022/12/20 07:41:37;;;;;;;336.07;316.60;;;4.20;32.00;;;;;;5074203;28;20207;-70
2022/12/20 07:44:02;;;;;;;375.07;352.30;;;4.20;32.00;;;;;;5074273;28;20190;-70
2022/12/20 07:46:28;;;;;;;319.13;300.73;;;4.30;31.70;;;;;;5073750;28;20217;-69
2022/12/20 07:48:54;;;;;;;305.83;287.70;;;4.40;31.90;;;;;;5062459;28;20182;-70
2022/12/20 07:51:26;;;;;;;334.50;315.50;;;4.50;31.60;;;;;;5074385;28;20411;-69
2022/12/20 07:54:00;;;;;;;394.17;370.90;;;4.50;30.90;;;;;;5071488;28;20631;-69
2022/12/20 07:56:26;;;;;;;333.30;313.70;;;4.60;30.90;;;;;;5089564;28;20547;-70
2022/12/20 07:58:57;;;;;;;333.97;314.20;;;4.70;30.50;;;;;;5073861;28;20420;-69
2022/12/20 08:01:25;;;;;;;482.17;451.43;;;4.60;30.00;;;;;;5089180;28;20416;-69
2022/12/20 08:03:55;;;;;;;311.60;292.20;;;4.70;30.10;;;;;;5073365;28;20424;-69
2022/12/20 08:06:21;;;;;;;337.30;317.37;;;4.80;29.80;;;;;;5073086;28;20464;-69
2022/12/20 08:08:54;;;;;;;195.70;180.87;;;4.80;29.00;;;;;;5073752;28;20962;-69
2022/12/20 08:11:21;;;;;;;398.03;375.10;;;4.90;29.00;;;;;;5068756;28;20253;-68
2022/12/20 08:13:49;;;;;;;374.37;352.90;;;5.00;29.00;;;;;;5053539;28;20895;-69
2022/12/20 08:16:15;;;;;;;284.80;266.10;;;5.10;28.90;;;;;;5063736;28;20450;-68
2022/12/20 08:18:40;;;;;;;304.67;285.47;;;5.10;28.80;;;;;;5067044;28;20439;-69
2022/12/20 08:21:06;;;;;;;389.20;366.40;;;5.20;28.50;;;;;;5051491;28;20182;-69
2022/12/20 08:23:31;;;;;;;187.97;173.53;;;5.30;28.50;;;;;;5051298;28;20208;-70
2022/12/20 08:26:00;;;;;;;174.73;161.00;;;5.40;28.30;;;;;;5049884;28;20311;-68
2022/12/20 08:28:25;;;;;;;390.93;368.23;;;5.40;26.70;;;;;;5051369;28;20177;-69
2022/12/20 08:30:51;;;;;;;383.13;361.03;;;5.50;26.60;;;;;;5050187;28;20516;-69
2022/12/20 08:33:16;;;;;;;388.63;365.73;;;5.50;27.20;;;;;;5049736;28;20393;-69
2022/12/20 08:35:42;;;;;;;306.27;284.73;;;5.50;26.60;;;;;;5051370;28;20214;-68
2022/12/20 08:38:07;;;;;;;431.80;406.77;;;5.60;26.50;;;;;;5053303;28;20216;-69
2022/12/20 08:40:33;;;;;;;372.67;349.20;;;5.60;26.50;;;;;;5051825;28;20194;-69
2022/12/20 08:42:58;;;;;;;408.93;383.93;;;5.70;26.80;;;;;;5053338;28;20247;-68
2022/12/20 08:45:24;;;;;;;342.50;322.20;;;5.80;26.70;;;;;;5052960;28;20214;-68
2022/12/20 08:47:49;;;;;;;322.37;301.50;;;5.90;26.70;;;;;;5052230;28;20187;-69
2022/12/20 08:50:15;;;;;;;432.83;408.03;;;6.00;26.20;;;;;;5052765;28;20712;-68
2022/12/20 08:52:41;;;;;;;479.53;451.40;;;6.10;25.70;;;;;;5061548;28;20260;-70
2022/12/20 08:55:06;;;;;;;445.17;416.20;;;6.20;25.60;;;;;;5066904;28;20210;-70
2022/12/20 08:57:32;;;;;;;255.20;237.60;;;6.20;24.90;;;;;;5068907;28;20181;-69
2022/12/20 08:59:57;;;;;;;524.37;492.70;;;6.20;24.90;;;;;;5068620;28;20187;-68
2022/12/20 09:02:23;;;;;;;517.67;486.60;;;6.20;24.80;;;;;;5068186;28;20182;-68
2022/12/20 09:04:49;;;;;;;491.77;463.27;;;6.20;24.60;;;;;;5069161;28;20203;-69
2022/12/20 09:07:14;;;;;;;406.23;380.70;;;6.20;25.60;;;;;;5067994;28;20285;-68
2022/12/20 09:09:40;;;;;;;492.47;462.77;;;6.20;25.00;;;;;;5068300;28;20433;-69
2022/12/20 09:12:06;;;;;;;490.40;460.83;;;6.30;25.10;;;;;;5068946;28;20247;-69
2022/12/20 09:14:32;;;;;;;467.67;439.67;;;6.40;24.50;;;;;;5066814;28;20192;-69
2022/12/20 09:16:58;;;;;;;500.87;471.50;;;6.40;24.60;;;;;;5067258;28;20510;-69
2022/12/20 09:19:23;;;;;;;518.30;486.67;;;6.50;24.50;;;;;;5068883;28;20494;-69
2022/12/20 09:21:49;;;;;;;526.20;493.47;;;6.50;24.10;;;;;;5067947;28;20218;-69
2022/12/20 09:24:14;;;;;;;461.17;427.60;;;6.60;24.20;;;;;;5065994;28;20269;-69
2022/12/20 09:26:40;;;;;;;567.20;532.70;;;6.70;23.50;;;;;;5053526;28;20306;-69
2022/12/20 09:29:05;;;;;;;498.20;468.43;;;6.70;23.60;;;;;;5057449;28;20266;-69
2022/12/20 09:31:31;;;;;;;330.23;306.60;;;6.80;23.70;;;;;;5068531;28;20658;-68
2022/12/20 09:33:58;;;;;;;552.83;518.93;;;6.80;23.10;;;;;;5071867;28;20182;-68
2022/12/20 09:36:26;;;;;;;483.20;453.90;;;6.90;22.90;;;;;;5060585;28;20219;-68
2022/12/20 09:38:53;;;;;;;517.97;483.60;;;7.00;22.50;;;;;;5057979;28;20430;-69
2022/12/20 09:41:32;;;;;;;685.57;638.40;;;7.20;22.30;;;;;;5051836;28;20415;-69
2022/12/20 09:44:03;;;;;;;395.13;367.13;;;7.20;22.30;;;;;;5054204;28;20438;-68
2022/12/20 09:46:29;;;;;;;513.13;478.87;;;7.30;22.00;;;;;;5066079;28;21109;-69
2022/12/20 09:48:55;;;;;;;255.70;236.37;;;7.50;21.70;;;;;;5063108;28;20447;-68
2022/12/20 09:51:32;;;;;;;572.13;534.60;;;7.70;21.90;;;;;;5051662;28;20420;-68
2022/12/20 09:54:03;;;;;;;455.40;421.47;;;7.90;21.60;;;;;;5051921;28;20434;-70
2022/12/20 09:56:36;;;;;;;658.03;613.00;;;7.90;21.20;;;;;;5051762;28;20443;-69
2022/12/20 09:59:12;;;;;;;513.77;479.83;;;8.10;20.80;;;;;;5051602;28;20870;-69
2022/12/20 10:01:41;;;;;;;541.23;505.80;;;8.10;20.40;;;;;;5057248;28;20638;-69
2022/12/20 10:04:28;;;;;;;397.43;369.87;;;8.20;20.60;;;;;;5051867;28;20417;-69
2022/12/20 10:07:34;;;;;;;495.77;462.20;;;8.40;19.90;;;;;;5051261;28;20461;-69
2022/12/20 10:10:18;;;;;;;517.90;483.03;;;8.40;19.30;;;;;;5050728;28;20447;-69
2022/12/20 10:12:57;;;;;;;607.47;566.93;;;8.30;18.80;;;;;;5054817;28;20609;-69
2022/12/20 10:15:43;;;;;;;494.50;461.40;;;8.30;18.50;;;;;;5060713;28;20523;-69
2022/12/20 10:18:26;;;;;;;513.87;479.90;;;8.50;19.30;;;;;;5051575;28;20405;-69
2022/12/20 10:21:23;;;;;;;425.53;397.07;;;8.50;18.10;;;;;;5051755;28;20504;-69
2022/12/20 10:24:02;;;;;;;314.90;293.20;;;8.50;18.10;;;;;;5039956;28;20515;-69
2022/12/20 10:26:28;;;;;;;494.93;463.40;;;8.50;18.20;;;;;;5057248;28;20460;-68
2022/12/20 10:28:54;;;;;;;464.23;432.77;;;8.40;18.10;;;;;;5064968;28;20938;-69
2022/12/20 10:31:19;;;;;;;628.00;586.33;;;8.20;17.90;;;;;;5048600;28;20453;-69
2022/12/20 10:33:45;;;;;;;391.70;364.97;;;8.10;18.60;;;;;;5047125;28;20187;-69
2022/12/20 10:36:27;;;;;;;563.47;526.63;;;8.00;19.00;;;;;;5046498;28;20687;-69
2022/12/20 10:38:55;;;;;;;427.93;399.47;;;7.80;18.90;;;;;;5047505;28;20459;-70
2022/12/20 10:41:24;;;;;;;503.33;468.70;;;7.60;19.60;;;;;;5060808;28;21138;-69
2022/12/20 10:44:01;;;;;;;560.97;523.73;;;7.50;19.90;;;;;;5051202;28;20426;-70
2022/12/20 10:46:42;;;;;;;426.47;396.63;;;7.30;20.40;;;;;;5051276;28;20462;-69
2022/12/20 10:49:29;;;;;;;538.40;504.97;;;7.30;20.70;;;;;;5052423;28;20425;-69
2022/12/20 10:52:07;;;;;;;477.20;446.47;;;7.20;21.00;;;;;;5050810;28;20464;-69
2022/12/20 10:54:41;;;;;;;531.50;495.30;;;7.20;21.50;;;;;;5055297;28;20445;-69
2022/12/20 10:57:20;;;;;;;389.97;361.33;;;7.00;21.40;;;;;;5071392;28;20419;-69
2022/12/20 10:59:59;;;;;;;370.80;346.60;;;6.90;21.80;;;;;;5071338;28;20414;-69
2022/12/20 11:02:35;;;;;;;461.37;432.70;;;6.90;21.90;;;;;;5071039;28;20501;-69
2022/12/20 11:05:02;;;;;;;607.70;564.50;;;6.90;22.20;;;;;;5071178;28;20442;-68
2022/12/20 11:07:31;;;;;;;112.70;97.70;;;6.90;22.50;;;;;;5071392;28;20414;-67
2022/12/20 11:09:59;;;;;;;552.00;512.83;;;6.90;22.50;;;;;;5071217;28;20779;-69
2022/12/20 11:12:25;;;;;;;449.33;418.23;;;6.90;22.40;;;;;;5071703;28;20419;-69
2022/12/20 11:15:18;;;;;;;572.53;531.93;;;6.70;23.10;;;;;;5074738;28;20930;-69
2022/12/20 11:17:47;;;;;;;401.13;373.83;;;6.70;23.60;;;;;;5073612;28;20181;-68
2022/12/20 11:20:39;;;;;;;516.40;482.67;;;6.70;23.70;;;;;;5074876;28;20416;-69
2022/12/20 11:23:10;;;;;;;438.57;408.47;;;6.90;23.20;;;;;;5050921;28;20515;-69
2022/12/20 11:26:10;;;;;;;489.13;455.77;;;7.00;23.00;;;;;;5054648;28;20830;-68
2022/12/20 11:28:41;;;;;;;616.83;572.70;;;7.10;23.00;;;;;;5054647;28;20414;-69
2022/12/20 11:31:22;;;;;;;381.57;354.13;;;7.00;22.80;;;;;;5054562;28;20420;-69
2022/12/20 11:33:59;;;;;;;430.87;399.33;;;7.00;22.80;;;;;;5054483;28;20561;-68
2022/12/20 11:36:32;;;;;;;298.53;278.17;;;7.10;22.80;;;;;;5107437;22;20692;-71
2022/12/20 11:39:16;;;;;;;512.83;477.53;;;7.30;22.50;;;;;;5089992;28;20456;-70
2022/12/20 11:42:13;;;;;;;508.57;475.93;;;7.50;21.70;;;;;;5089635;28;20447;-70
2022/12/20 11:44:41;;;;;;;401.83;374.83;;;7.60;21.80;;;;;;5074416;28;21101;-71
2022/12/20 11:47:22;;;;;;;523.70;490.83;;;7.80;20.70;;;;;;5057282;28;20467;-70
2022/12/20 11:50:11;;;;;;;541.77;505.97;;;8.00;20.50;;;;;;5054152;28;20413;-70
2022/12/20 11:52:51;;;;;;;611.93;570.37;;;8.00;20.00;;;;;;5053938;28;20937;-70
2022/12/20 11:55:20;;;;;;;519.13;482.93;;;8.00;19.80;;;;;;5053922;28;20516;-70
2022/12/20 11:58:00;;;;;;;521.07;487.37;;;8.10;19.50;;;;;;5051315;28;20419;-70
2022/12/20 12:00:26;;;;;;;575.77;536.70;;;8.30;19.70;;;;;;5042238;28;20437;-70
2022/12/20 12:03:11;;;;;;;472.43;441.17;;;8.40;19.40;;;;;;5033644;28;20776;-70
2022/12/20 12:05:47;;;;;;;514.03;480.67;;;8.50;19.00;;;;;;5033526;28;20468;-70
2022/12/20 12:08:23;;;;;;;643.73;599.97;;;8.50;18.50;;;;;;5034189;28;20412;-71
2022/12/20 12:11:07;;;;;;;554.80;517.03;;;8.40;18.30;;;;;;5058691;28;20427;-70
2022/12/20 12:13:36;;;;;;;583.67;543.53;;;8.10;18.80;;;;;;5073520;28;20462;-70
2022/12/20 12:16:13;;;;;;;344.33;321.07;;;8.00;19.30;;;;;;5069755;28;20438;-71
2022/12/20 12:18:41;;;;;;;525.33;491.27;;;8.00;19.70;;;;;;5050202;28;20952;-71
2022/12/20 12:21:23;;;;;;;390.87;365.77;;;8.00;19.70;;;;;;5053208;28;20421;-71
2022/12/20 12:24:04;;;;;;;553.87;515.93;;;7.90;19.90;;;;;;5053269;28;20482;-71
2022/12/20 12:26:35;;;;;;;529.43;494.37;;;8.00;20.30;;;;;;5052471;28;20574;-71
2022/12/20 12:29:03;;;;;;;505.50;473.53;;;8.30;20.30;;;;;;5045457;28;20428;-71
2022/12/20 12:31:37;;;;;;;463.33;432.27;;;8.70;20.20;;;;;;5052191;28;20436;-71
2022/12/20 12:34:20;;;;;;;349.53;323.63;;;9.20;18.90;;;;;;5033347;28;20539;-71
2022/12/20 12:37:01;;;;;;;495.90;460.93;;;9.50;17.60;;;;;;5047528;28;20460;-71
2022/12/20 12:39:50;;;;;;;573.50;534.97;;;9.50;17.10;;;;;;5053289;28;20420;-71
2022/12/20 12:42:37;;;;;;;513.43;477.53;;;9.40;17.10;;;;;;5052886;28;20484;-71
2022/12/20 12:45:12;;;;;;;450.33;419.30;;;9.30;17.30;;;;;;5052928;28;20425;-71